Vremea acum in Zlatna - Romania

Vrei sa afli care e starea vremii acum in Arad - Romania? Dorim sa iti furnizam starea vremii pentru Arad - Romania. Starea vremii Arad - Romania pentru astazi.

Vremea acum in Zlatna

Temperatura: 11.7 °C

Este: Patchy rain nearby
Se simte ca: 11.7 °C
Innorat: 87 %
Precipitatii: 100 %
Presiune atmosferica: 1016 hPa
Umiditate: 87%
Vizibilitate: 10 km
Vantul bate din N cu 3.6 km/h

Evolutia vremii in Zlatna pe ore

Ora: 02:00
Patchy rain nearby
Temperatura: 11.6°C
Sansa de precipitatii: 100%
Ora Descriere Temp Se simte Precipitatii Umiditate Vant
00:00Innorat11.9°12.5°0%86%N 3.2 KM/H
01:00Patchy rain nearby11.7°11.7°100%87%N 3.6 KM/H
02:00Patchy rain nearby11.6°11.6°100%87%NNE 2.2 KM/H
03:00Patchy rain nearby11.6°11.6°100%87%NNE 1.8 KM/H
04:00Burniță ușoară11.7°11.7°100%87%ENE 1.8 KM/H
05:00Burniță ușoară12°12°100%90%ENE 2.9 KM/H
06:00Burniță ușoară12.1°12.5°100%93%NE 3.6 KM/H
07:00Burniță ușoară12.8°13.2°100%93%NE 4.3 KM/H
08:00Burniță ușoară13.7°14.5°100%93%NE 3.2 KM/H
09:00Burniță ușoară13.9°14°100%92%NE 2.9 KM/H
10:00Burniță ușoară14.1°14.1°100%92%N 1.4 KM/H
11:00Burniță ușoară14.3°14.4°100%90%E 0.7 KM/H
12:00Patchy rain nearby14.4°14.4°100%90%SSE 2.9 KM/H
13:00Ploi usoare14.6°15.4°100%89%SSW 3.6 KM/H
14:00Ploi usoare14.7°15.4°100%89%SW 4 KM/H
15:00Ploi usoare14.6°15.1°100%90%SW 4.3 KM/H
16:00Patchy rain nearby14.4°14.6°100%92%SW 5.4 KM/H
17:00Patchy rain nearby14.4°14.5°51%91%SSW 5.8 KM/H
18:00Patchy rain nearby14.5°14.5°100%89%SW 2.9 KM/H
19:00Ploi usoare14°14°100%92%S 2.9 KM/H
20:00Ploi usoare12.7°12.7°100%93%S 5.4 KM/H
21:00Patchy rain nearby12°11.9°86%93%SSW 5.4 KM/H
22:00Innorat11.1°11.3°0%92%W 4.3 KM/H
23:0010.4°10.3°0%91%W 4.7 KM/H




tutorials